createdAt,value
2023-11-19T07:40:57.132Z,1.70
2023-11-19T07:43:24.483Z,0.85
2023-11-19T07:45:51.202Z,1.65
2023-11-19T07:48:19.183Z,1.75
2023-11-19T07:50:45.953Z,1.63
2023-11-19T07:53:13.755Z,1.08
2023-11-19T07:55:42.660Z,1.08
2023-11-19T07:58:09.648Z,1.65
2023-11-19T08:00:36.225Z,1.25
2023-11-19T08:03:03.165Z,1.20
2023-11-19T08:05:30.028Z,0.75
2023-11-19T08:07:56.775Z,1.85
2023-11-19T08:10:23.732Z,4.80
2023-11-19T08:12:50.460Z,1.00
2023-11-19T08:15:32.064Z,0.75
2023-11-19T08:17:59.234Z,1.08
2023-11-19T08:20:25.914Z,1.45
2023-11-19T08:22:52.557Z,1.13
2023-11-19T08:25:19.217Z,1.08
2023-11-19T08:27:45.848Z,1.05
2023-11-19T08:30:12.973Z,1.27
2023-11-19T08:32:39.834Z,1.02
2023-11-19T08:35:07.091Z,1.42
2023-11-19T08:37:34.229Z,0.85
2023-11-19T08:40:02.131Z,1.50
2023-11-19T08:42:28.801Z,1.35
2023-11-19T08:44:55.779Z,1.33
2023-11-19T08:47:23.935Z,1.77
2023-11-19T08:52:24.152Z,1.70
2023-11-19T08:54:50.913Z,1.15
2023-11-19T08:57:17.783Z,1.90
2023-11-19T08:59:46.788Z,1.25
2023-11-19T09:02:13.570Z,0.88
2023-11-19T09:04:40.302Z,1.00
2023-11-19T09:07:07.038Z,1.33
2023-11-19T09:09:38.236Z,1.55
2023-11-19T09:12:05.191Z,1.10
2023-11-19T09:14:32.755Z,0.68
2023-11-19T09:16:59.776Z,1.33
2023-11-19T09:19:27.446Z,1.42
2023-11-19T09:21:54.708Z,1.50
2023-11-19T09:24:21.412Z,0.98
2023-11-19T09:26:48.113Z,1.40
2023-11-19T09:29:15.717Z,1.20
2023-11-19T09:31:42.416Z,1.00
2023-11-19T09:34:09.292Z,2.08
2023-11-19T09:36:35.975Z,1.50
2023-11-19T09:39:03.276Z,1.75
2023-11-19T09:41:31.689Z,1.65
2023-11-19T09:46:27.303Z,1.33
2023-11-19T09:48:56.018Z,2.00
2023-11-19T09:51:25.797Z,1.83
2023-11-19T09:53:52.629Z,1.23
2023-11-19T09:56:19.701Z,1.75
2023-11-19T09:58:46.406Z,2.00
2023-11-19T10:03:45.163Z,2.22
2023-11-19T10:06:12.186Z,1.95
2023-11-19T10:08:42.568Z,2.22
2023-11-19T10:11:11.677Z,1.85
2023-11-19T10:13:43.768Z,2.03
2023-11-19T10:16:13.175Z,1.52
2023-11-19T10:18:47.095Z,1.83
2023-11-19T10:21:18.415Z,1.40
2023-11-19T10:23:53.226Z,2.08
2023-11-19T10:26:21.088Z,2.38
2023-11-19T10:28:49.125Z,1.67
2023-11-19T10:31:17.232Z,2.53
2023-11-19T10:33:47.935Z,1.90
2023-11-19T10:36:15.846Z,2.35
2023-11-19T10:38:53.160Z,1.75
2023-11-19T10:41:30.009Z,2.28
2023-11-19T10:43:56.874Z,1.80
2023-11-19T10:46:24.498Z,1.80
2023-11-19T10:48:51.333Z,2.03
2023-11-19T10:51:24.435Z,2.13
2023-11-19T10:53:54.110Z,3.05
2023-11-19T10:56:25.933Z,2.75
2023-11-19T10:58:55.357Z,2.83
2023-11-19T11:01:25.958Z,1.65
2023-11-19T11:03:55.558Z,1.77
2023-11-19T11:06:23.589Z,1.80
2023-11-19T11:08:50.283Z,2.65
2023-11-19T11:11:18.634Z,2.10
2023-11-19T11:13:46.836Z,2.22
2023-11-19T11:16:14.837Z,2.63
2023-11-19T11:18:41.614Z,1.15
2023-11-19T11:21:13.897Z,2.50
2023-11-19T11:24:02.568Z,1.90
2023-11-19T11:26:48.307Z,2.20
2023-11-19T11:29:27.530Z,2.22
2023-11-19T11:32:26.215Z,3.13
2023-11-19T11:34:58.872Z,2.05
2023-11-19T11:37:35.967Z,1.92
2023-11-19T11:40:11.530Z,3.22
2023-11-19T11:42:38.842Z,3.10
2023-11-19T11:45:11.309Z,3.33
2023-11-19T11:47:44.123Z,4.60
2023-11-19T11:50:14.900Z,6.45
2023-11-19T11:53:00.132Z,2.80
2023-11-19T11:55:38.052Z,2.45
2023-11-19T11:58:06.910Z,2.05
2023-11-19T12:00:38.857Z,2.05
2023-11-19T12:03:26.567Z,1.67
2023-11-19T12:05:53.354Z,1.98
2023-11-19T12:08:26.574Z,2.42
2023-11-19T12:10:55.677Z,1.92
2023-11-19T12:13:25.486Z,2.20
2023-11-19T12:15:58.357Z,2.17
2023-11-19T12:18:27.849Z,2.28
2023-11-19T12:20:57.695Z,2.97
2023-11-19T12:23:25.035Z,2.33
2023-11-19T12:25:51.759Z,2.90
2023-11-19T12:28:18.850Z,2.75
2023-11-19T12:30:46.228Z,2.72
2023-11-19T12:33:14.063Z,2.67
2023-11-19T12:35:44.730Z,3.55
2023-11-19T12:38:26.731Z,3.45
2023-11-19T12:41:06.659Z,3.08
2023-11-19T12:43:51.129Z,2.90
2023-11-19T12:46:21.468Z,2.25
2023-11-19T12:48:52.608Z,6.15
2023-11-19T12:51:19.402Z,4.78
2023-11-19T12:53:51.131Z,4.80
2023-11-19T12:56:17.874Z,3.60
2023-11-19T12:58:44.522Z,6.00
2023-11-19T13:01:16.208Z,4.35
2023-11-19T13:03:42.994Z,5.50
2023-11-19T13:06:12.438Z,5.72
2023-11-19T13:08:46.832Z,8.43
2023-11-19T13:11:14.589Z,6.13
2023-11-19T13:14:16.840Z,4.43
2023-11-19T13:16:43.985Z,3.28
2023-11-19T13:19:11.213Z,5.43
2023-11-19T13:21:39.127Z,5.30
2023-11-19T13:24:06.902Z,2.47
2023-11-19T13:26:33.424Z,2.67
2023-11-19T13:29:00.351Z,2.53
2023-11-19T13:31:27.531Z,1.67
2023-11-19T13:33:54.319Z,2.05
2023-11-19T13:36:21.166Z,1.70
2023-11-19T13:38:48.151Z,2.92
2023-11-19T13:41:15.156Z,1.85
2023-11-19T13:43:41.864Z,2.08
2023-11-19T13:46:11.381Z,1.45
2023-11-19T13:48:38.885Z,1.05
2023-11-19T13:51:06.636Z,0.80
2023-11-19T13:53:51.616Z,0.88
2023-11-19T13:56:18.924Z,0.98
2023-11-19T13:58:45.541Z,0.90
2023-11-19T14:06:09.507Z,1.00
2023-11-19T14:08:36.381Z,0.90
2023-11-19T14:11:03.259Z,2.40
2023-11-19T14:13:30.122Z,1.40
2023-11-19T14:15:57.041Z,1.33
2023-11-19T14:18:24.155Z,0.80
2023-11-19T14:20:50.761Z,0.95
2023-11-19T14:23:17.479Z,0.88
2023-11-19T14:25:44.589Z,0.50
2023-11-19T14:28:11.303Z,1.30
2023-11-19T14:30:38.204Z,1.17
2023-11-19T14:33:06.146Z,1.02
2023-11-19T14:35:34.855Z,0.80
2023-11-19T14:38:06.428Z,0.80
2023-11-19T14:43:03.230Z,1.30
2023-11-19T14:45:36.204Z,0.87
2023-11-19T14:48:08.418Z,0.90
2023-11-19T14:50:38.062Z,0.70
2023-11-19T14:53:04.957Z,0.50
2023-11-19T14:55:34.983Z,0.57
2023-11-19T14:58:07.593Z,3.13
2023-11-19T15:00:36.531Z,3.13
2023-11-19T15:03:03.383Z,5.78
2023-11-19T15:05:30.662Z,5.88
2023-11-19T15:07:57.360Z,4.30
2023-11-19T15:10:25.927Z,1.02
2023-11-19T15:12:54.573Z,8.50
2023-11-19T15:18:08.828Z,1.70
2023-11-19T15:20:35.571Z,1.40
2023-11-19T15:23:02.375Z,0.98
2023-11-19T15:25:29.071Z,0.82
2023-11-19T15:30:37.945Z,1.08
2023-11-19T15:33:04.622Z,0.88
2023-11-19T15:35:31.316Z,1.75
2023-11-19T15:38:01.085Z,0.63
2023-11-19T15:41:48.915Z,0.90
2023-11-19T15:44:41.178Z,1.60
2023-11-19T15:48:03.855Z,1.33
2023-11-19T15:50:30.544Z,2.30
2023-11-19T15:53:00.394Z,2.03
2023-11-19T15:55:27.186Z,1.83
2023-11-19T15:57:53.828Z,1.20
2023-11-19T16:00:22.781Z,2.40
2023-11-19T16:02:57.737Z,2.03
2023-11-19T16:05:27.242Z,3.15
2023-11-19T16:07:53.878Z,3.65
2023-11-19T16:10:25.721Z,2.28
2023-11-19T16:12:53.289Z,3.33
2023-11-19T16:17:51.146Z,5.50
2023-11-19T16:20:17.928Z,4.53
2023-11-19T16:22:44.803Z,8.13
2023-11-19T16:25:13.542Z,2.55
2023-11-19T16:27:43.731Z,3.65
2023-11-19T16:30:11.016Z,1.35
2023-11-19T16:32:53.048Z,2.15
2023-11-19T16:35:19.845Z,1.48
2023-11-19T16:37:49.415Z,1.75
2023-11-19T16:40:16.695Z,1.40
2023-11-19T16:42:43.397Z,1.30
2023-11-19T16:45:10.559Z,1.23
2023-11-19T16:47:37.394Z,1.27
2023-11-19T16:50:04.777Z,2.10
2023-11-19T16:52:34.579Z,1.63
2023-11-19T16:55:02.615Z,2.08
2023-11-19T16:57:29.267Z,3.92
2023-11-19T16:59:57.577Z,5.13
2023-11-19T17:02:27.436Z,3.83
2023-11-19T17:04:54.204Z,3.83
2023-11-19T17:07:20.913Z,2.67
2023-11-19T17:09:47.873Z,3.45
2023-11-19T17:12:14.615Z,2.72
2023-11-19T17:14:41.384Z,2.13
2023-11-19T17:17:08.203Z,2.28
2023-11-19T17:19:34.914Z,2.72
2023-11-19T17:22:01.557Z,3.78
2023-11-19T17:24:28.183Z,2.92
2023-11-19T17:26:54.936Z,2.63
2023-11-19T17:29:22.913Z,2.92
2023-11-19T17:31:49.612Z,4.25
2023-11-19T17:34:16.333Z,4.13
2023-11-19T17:36:43.086Z,3.58
2023-11-19T17:39:09.848Z,3.95
2023-11-19T17:41:36.549Z,3.78
2023-11-19T17:44:03.284Z,2.03
2023-11-19T17:46:29.916Z,2.80
2023-11-19T17:48:56.668Z,2.03
2023-11-19T17:51:24.078Z,2.03
2023-11-19T17:53:51.257Z,1.05
2023-11-19T17:56:18.672Z,1.90
2023-11-19T17:58:45.501Z,2.17
2023-11-19T18:01:12.386Z,1.77
2023-11-19T18:03:39.374Z,2.00
2023-11-19T18:06:06.887Z,2.08
2023-11-19T18:08:33.623Z,1.90
2023-11-19T18:11:00.413Z,2.03
2023-11-19T18:13:27.038Z,2.17
2023-11-19T18:15:54.746Z,2.25
2023-11-19T18:18:22.577Z,2.00
2023-11-19T18:20:49.569Z,2.92
2023-11-19T18:23:16.485Z,3.47
2023-11-19T18:25:43.186Z,3.10
2023-11-19T18:28:09.871Z,3.10
2023-11-19T18:30:39.041Z,3.00
2023-11-19T18:33:05.786Z,3.25
2023-11-19T18:35:56.932Z,6.63
2023-11-19T18:41:09.113Z,6.85
2023-11-19T18:43:35.863Z,1.73
2023-11-19T18:46:12.037Z,1.98
2023-11-19T18:49:38.223Z,1.42
2023-11-19T18:52:08.317Z,0.75
2023-11-19T18:54:36.410Z,1.35
2023-11-19T18:57:06.292Z,1.15
2023-11-19T18:59:58.150Z,1.90
2023-11-19T19:02:27.063Z,1.02
2023-11-19T19:04:54.174Z,1.60
2023-11-19T19:07:31.137Z,0.70
2023-11-19T19:09:58.812Z,0.90
2023-11-19T19:12:25.471Z,0.68
2023-11-19T19:14:53.075Z,0.80
2023-11-19T19:17:20.396Z,0.70
2023-11-19T19:19:47.534Z,0.60
2023-11-19T19:22:14.234Z,0.82
2023-11-19T19:24:41.008Z,0.98
2023-11-19T19:27:08.943Z,1.02
2023-11-19T19:29:35.680Z,0.82
2023-11-19T19:32:02.345Z,1.20
2023-11-19T19:34:30.823Z,1.00
2023-11-19T19:39:25.663Z,1.05
2023-11-19T19:41:52.316Z,1.88
2023-11-19T19:44:20.750Z,1.48
2023-11-19T19:49:15.016Z,0.80
2023-11-19T19:51:41.959Z,0.70
2023-11-19T19:54:08.730Z,0.40
2023-11-19T19:56:36.126Z,0.50
2023-11-19T19:59:02.807Z,0.43
2023-11-19T20:01:29.462Z,0.80
2023-11-19T20:03:56.223Z,0.80
2023-11-19T20:06:25.567Z,0.45
2023-11-19T20:08:52.875Z,0.60
2023-11-19T20:11:19.707Z,0.85
2023-11-19T20:13:46.373Z,0.40
2023-11-19T20:16:13.394Z,0.52
2023-11-19T20:18:40.210Z,0.70
2023-11-19T20:21:09.736Z,0.75
2023-11-19T20:23:36.582Z,0.52
2023-11-19T20:26:03.435Z,0.85
2023-11-19T20:28:30.336Z,0.50
2023-11-19T20:30:57.047Z,0.95
2023-11-19T20:33:25.955Z,0.70
2023-11-19T20:35:52.572Z,1.02
2023-11-19T20:38:19.248Z,0.65
2023-11-19T20:40:45.930Z,0.50
2023-11-19T20:43:12.597Z,0.90
2023-11-19T20:45:39.941Z,0.93
2023-11-19T20:48:06.958Z,0.60
2023-11-19T20:50:35.149Z,0.60
2023-11-19T20:53:01.926Z,0.45
2023-11-19T20:55:29.722Z,0.90
2023-11-19T20:57:58.129Z,0.70
2023-11-19T21:00:25.621Z,1.13
2023-11-19T21:02:55.066Z,0.93
2023-11-19T21:05:21.865Z,1.15
2023-11-19T21:07:49.488Z,1.17
2023-11-19T21:10:16.262Z,0.52
2023-11-19T21:12:43.075Z,0.73
2023-11-19T21:15:10.281Z,1.13
2023-11-19T21:17:36.973Z,0.90
2023-11-19T21:20:04.498Z,1.02
2023-11-19T21:22:31.359Z,1.20
2023-11-19T21:24:58.081Z,0.63
2023-11-19T21:27:24.954Z,0.55
2023-11-19T21:29:51.693Z,0.35
2023-11-19T21:32:18.432Z,0.57
2023-11-19T21:34:45.368Z,1.85
2023-11-19T21:37:12.081Z,0.85
2023-11-19T21:39:38.864Z,0.82
2023-11-19T21:42:06.128Z,1.38
2023-11-19T21:44:32.806Z,0.90
2023-11-19T21:46:59.860Z,0.65
2023-11-19T21:49:26.694Z,0.73
2023-11-19T21:51:53.430Z,1.20
2023-11-19T21:54:20.103Z,1.42
2023-11-19T21:56:46.996Z,2.53
2023-11-19T21:59:13.807Z,1.73
2023-11-19T22:01:40.634Z,0.88
2023-11-19T22:04:07.543Z,1.20
2023-11-19T22:06:34.455Z,0.45
2023-11-19T22:09:01.522Z,1.10
2023-11-19T22:11:29.225Z,0.60
2023-11-19T22:13:56.360Z,0.52
2023-11-19T22:16:23.298Z,0.80
2023-11-19T22:18:50.643Z,0.73
2023-11-19T22:21:17.457Z,0.60
2023-11-19T22:23:44.445Z,0.60
2023-11-19T22:26:11.321Z,0.57
2023-11-19T22:28:40.404Z,0.65
2023-11-19T22:31:07.565Z,0.68
2023-11-19T22:33:34.344Z,0.68
2023-11-19T22:36:01.143Z,0.63
2023-11-19T22:38:28.067Z,0.68
2023-11-19T22:40:55.269Z,1.00
2023-11-19T22:43:22.068Z,0.60
2023-11-19T22:45:49.180Z,0.65
2023-11-19T22:48:15.983Z,0.82
2023-11-19T22:50:43.090Z,0.50
2023-11-19T22:53:09.752Z,0.63
2023-11-19T22:55:36.731Z,0.88
2023-11-19T22:58:04.478Z,0.82
2023-11-19T23:00:31.733Z,0.75
2023-11-19T23:02:59.851Z,0.50
2023-11-19T23:05:31.154Z,0.50
2023-11-19T23:07:58.766Z,0.60
2023-11-19T23:10:25.528Z,0.57
2023-11-19T23:12:52.650Z,0.75
2023-11-19T23:15:20.042Z,0.52
2023-11-19T23:17:46.992Z,0.47
2023-11-19T23:20:17.421Z,0.25
2023-11-19T23:22:44.777Z,0.47
2023-11-19T23:25:12.036Z,0.85
2023-11-19T23:27:38.941Z,0.50
2023-11-19T23:30:06.163Z,0.63
2023-11-19T23:32:32.856Z,0.40
2023-11-19T23:34:59.523Z,0.30
2023-11-19T23:37:26.289Z,0.52
2023-11-19T23:39:53.806Z,0.35
2023-11-19T23:42:21.433Z,1.00
2023-11-19T23:44:48.562Z,0.90
2023-11-19T23:47:15.233Z,0.60
2023-11-19T23:49:42.337Z,0.95
2023-11-19T23:52:10.583Z,0.80
2023-11-19T23:54:37.672Z,0.55
2023-11-19T23:57:05.108Z,0.90
2023-11-19T23:59:32.297Z,1.15
